Terminal Aerodrome Forecast
Issued by NWS

Current Version | Previous Version | Text Only | Print | Product List | Glossary Off
Versions: 1 2 3 4 5 6 7 8 9 10 11 12 13 14 15 16 17

000
FTUS41 KPBZ 250909 AAA
TAFHLG
TAF AMD
KHLG 250909Z 2509/2606 07005KT P6SM OVC080
      TEMPO 2510/2514 6SM -RA BKN025
     FM252100 09005KT 5SM -SHRA OVC030
     FM260300 VRB05KT P6SM -SHRA OVC050=

USA.gov is the U.S. government's official web portal to all federal, state and local government web resources and services.